Time;durP1;ratioP1;P1;durP2;ratioP2;P2;SDS_P1;SDS_P2;PMS_P1;PMS_P2;Temp;Humidity;BMP_temperature;BMP_pressure;BME280_temperature;BME280_humidity;BME280_pressure;Samples;Min_cycle;Max_cycle;Signal;HPM_P1;HPM_P2
2024/04/02 00:00:42;;;;;;;36.28;6.15;;;;;;;19.91;19.86;93121.22;5071683;28;20031;-72
2024/04/02 00:03:09;;;;;;;40.17;6.40;;;;;;;19.81;21.28;93100.41;5070568;28;20128;-72
2024/04/02 00:05:37;;;;;;;28.77;5.70;;;;;;;19.81;21.09;93115.84;5070679;28;20036;-72
2024/04/02 00:08:04;;;;;;;30.80;6.03;;;;;;;19.80;20.54;93095.44;5070728;28;20115;-73
2024/04/02 00:10:34;;;;;;;26.30;6.05;;;;;;;19.77;20.83;93104.28;5070410;28;20455;-72
2024/04/02 00:13:00;;;;;;;40.50;7.30;;;;;;;19.91;20.80;93098.84;5070242;28;20033;-72
2024/04/02 00:15:26;;;;;;;25.48;4.45;;;;;;;20.00;21.26;93091.13;5070489;28;20040;-72
2024/04/02 00:17:52;;;;;;;29.55;5.10;;;;;;;20.00;20.51;93072.22;5070528;28;20454;-72
2024/04/02 00:20:17;;;;;;;23.38;5.60;;;;;;;20.11;20.15;93087.25;5070451;28;20028;-72
2024/04/02 00:22:44;;;;;;;32.85;5.75;;;;;;;19.97;20.77;93086.53;5070544;28;20029;-73
2024/04/02 00:25:09;;;;;;;28.25;5.13;;;;;;;;;;5070870;28;20489;-72
2024/04/02 00:27:35;;;;;;;30.08;5.10;;;;;;;19.78;20.62;93101.22;5070670;28;20040;-72
2024/04/02 00:30:01;;;;;;;32.15;5.15;;;;;;;20.08;20.26;93092.66;5070412;28;20509;-72
2024/04/02 00:32:26;;;;;;;29.83;6.07;;;;;;;20.14;20.40;93099.22;5070616;28;20040;-72
2024/04/02 00:34:53;;;;;;;28.58;5.82;;;;;;;20.07;20.40;93108.09;5070497;28;20455;-72
2024/04/02 00:37:19;;;;;;;39.33;6.80;;;;;;;19.83;20.60;93087.31;5070497;28;20016;-72
2024/04/02 00:39:45;;;;;;;26.33;4.53;;;;;;;19.67;22.15;93092.34;5070807;28;20021;-72
2024/04/02 00:42:10;;;;;;;31.60;5.00;;;;;;;19.85;20.34;93089.63;5070463;28;20032;-72
2024/04/02 00:44:36;;;;;;;26.08;4.70;;;;;;;19.98;20.92;93104.25;5070410;28;20386;-73
2024/04/02 00:47:02;;;;;;;34.40;4.80;;;;;;;19.81;20.58;93089.63;5070212;28;20459;-72
2024/04/02 00:49:30;;;;;;;40.70;6.85;;;;;;;19.89;20.46;93098.50;5069848;28;20432;-72
2024/04/02 00:51:56;;;;;;;20.58;4.97;;;;;;;19.68;20.79;93102.75;5070299;28;20481;-72
2024/04/02 00:54:21;;;;;;;28.40;5.80;;;;;;;19.71;20.77;93096.59;5070427;28;20066;-72
2024/04/02 00:56:47;;;;;;;30.90;6.80;;;;;;;19.12;21.30;93097.31;5073678;28;20444;-72
2024/04/02 00:59:13;;;;;;;23.73;4.63;;;;;;;19.20;21.60;93088.09;5073791;28;20056;-72
2024/04/02 01:01:38;;;;;;;33.10;5.47;;;;;;;19.30;21.27;93098.13;5073483;28;20552;-72
2024/04/02 01:04:05;;;;;;;24.33;5.00;;;;;;;19.44;21.82;93076.56;5074436;28;20116;-72
2024/04/02 01:06:31;;;;;;;28.85;5.10;;;;;;;19.33;21.56;93091.94;5073587;28;20032;-72
2024/04/02 01:08:57;;;;;;;29.58;5.00;;;;;;;19.28;21.34;93084.25;5073523;28;20101;-73
2024/04/02 01:11:26;;;;;;;34.85;5.18;;;;;;;19.40;21.67;93096.59;5073340;28;20083;-72
2024/04/02 01:13:52;;;;;;;31.05;6.20;;;;;;;19.36;21.88;93091.16;5073597;28;20033;-73
2024/04/02 01:16:18;;;;;;;27.45;5.60;;;;;;;19.59;21.17;93094.28;5073545;28;20393;-72
2024/04/02 01:18:47;;;;;;;23.20;4.85;;;;;;;19.47;21.45;93102.75;5073441;28;20491;-73
2024/04/02 01:21:13;;;;;;;31.52;5.35;;;;;;;19.53;21.61;93105.84;5073407;28;20081;-73
2024/04/02 01:23:39;;;;;;;41.63;6.72;;;;;;;19.67;21.21;93106.59;5073436;28;20063;-73
2024/04/02 01:26:04;;;;;;;29.73;6.32;;;;;;;19.78;20.68;93105.81;5073121;28;20063;-73
2024/04/02 01:28:29;;;;;;;32.83;6.82;;;;;;;19.84;21.24;93080.00;5073068;28;20040;-73
2024/04/02 01:30:55;;;;;;;27.70;5.88;;;;;;;19.30;21.58;93084.66;5073633;28;20537;-73
2024/04/02 01:33:20;;;;;;;27.42;4.90;;;;;;;19.32;22.41;93114.66;5072993;28;20501;-73
2024/04/02 01:35:46;;;;;;;25.48;5.53;;;;;;;19.03;22.41;93099.63;5073171;28;20038;-74
2024/04/02 01:38:11;;;;;;;23.83;5.88;;;;;;;19.01;22.37;93101.94;5073266;28;20028;-73
2024/04/02 01:40:36;;;;;;;23.17;4.78;;;;;;;18.89;22.71;93093.06;5073108;28;20036;-73
2024/04/02 01:43:02;;;;;;;33.97;6.13;;;;;;;19.07;22.06;93085.00;5073873;28;20362;-73
2024/04/02 01:45:28;;;;;;;23.27;5.22;;;;;;;19.02;22.50;93092.72;5072817;28;20037;-73
2024/04/02 01:47:53;;;;;;;39.92;4.78;;;;;;;18.85;22.49;93084.22;5072957;28;20033;-73
2024/04/02 01:50:18;;;;;;;24.83;4.68;;;;;;;18.27;23.29;93091.69;5072630;28;20050;-73
2024/04/02 01:52:44;;;;;;;27.65;5.28;;;;;;;18.41;22.94;93075.59;5072596;28;20446;-73
2024/04/02 01:55:09;;;;;;;26.85;6.00;;;;;;;18.63;23.48;93093.34;5073106;28;20032;-73
2024/04/02 01:57:34;;;;;;;22.08;4.85;;;;;;;18.36;24.32;93084.03;5072383;28;20033;-73
2024/04/02 02:00:00;;;;;;;32.53;6.88;;;;;;;18.51;22.76;93049.84;5072195;28;20041;-73
2024/04/02 02:02:25;;;;;;;27.60;4.68;;;;;;;18.61;22.25;93047.19;5072530;28;20485;-73
2024/04/02 02:04:50;;;;;;;37.70;5.93;;;;;;;18.78;22.33;93046.47;5072513;28;20115;-73
2024/04/02 02:07:16;;;;;;;24.92;5.53;;;;;;;18.70;22.55;93066.47;5072364;28;20027;-73
2024/04/02 02:09:41;;;;;;;23.80;4.18;;;;;;;18.67;22.59;93047.59;5072769;28;20028;-73
2024/04/02 02:12:06;;;;;;;28.02;5.47;;;;;;;18.34;23.36;93043.25;5072458;28;20044;-73
2024/04/02 02:14:32;;;;;;;18.35;5.13;;;;;;;18.68;22.16;93028.34;5072105;28;20427;-74
2024/04/02 02:16:58;;;;;;;22.95;4.78;;;;;;;18.92;22.57;93063.84;5072539;28;20042;-73
2024/04/02 02:19:23;;;;;;;28.42;5.15;;;;;;;18.96;21.64;93016.09;5072337;28;20047;-73
2024/04/02 02:21:48;;;;;;;26.45;6.10;;;;;;;18.59;22.69;92984.88;5072855;28;20028;-73
2024/04/02 02:24:14;;;;;;;22.05;5.28;;;;;;;18.45;22.55;93012.53;5072104;28;20106;-73
2024/04/02 02:26:39;;;;;;;24.13;5.03;;;;;;;18.60;22.87;92997.19;5072301;28;20040;-73
2024/04/02 02:29:05;;;;;;;26.30;5.30;;;;;;;18.64;22.73;93008.72;5072028;28;20226;-73
2024/04/02 02:31:30;;;;;;;33.33;6.05;;;;;;;18.60;22.07;92972.94;5071808;28;20044;-73
2024/04/02 02:33:55;;;;;;;25.58;5.40;;;;;;;18.85;21.71;92987.22;5072502;28;20029;-73
2024/04/02 02:36:21;;;;;;;19.23;4.10;;;;;;;18.84;21.75;92993.00;5071855;28;20050;-73
2024/04/02 02:38:46;;;;;;;32.10;4.43;;;;;;;18.99;21.72;92975.69;5071813;28;20101;-73
2024/04/02 02:41:12;;;;;;;22.50;5.03;;;;;;;18.80;21.76;92984.91;5071946;28;20545;-72
2024/04/02 02:43:37;;;;;;;31.08;5.63;;;;;;;18.89;21.32;92979.91;5072012;28;20521;-73
2024/04/02 02:46:02;;;;;;;28.50;4.82;;;;;;;18.76;21.62;92972.59;5072435;28;20535;-73
2024/04/02 02:48:28;;;;;;;30.45;6.00;;;;;;;18.83;22.25;93000.31;5071436;28;20711;-72
2024/04/02 02:50:53;;;;;;;23.05;3.90;;;;;;;18.75;21.07;92944.13;5071714;28;20047;-73
2024/04/02 02:53:18;;;;;;;20.98;3.78;;;;;;;18.91;21.53;92941.06;5071499;28;20123;-73
2024/04/02 02:55:53;;;;;;;24.42;5.13;;;;;;;18.91;22.48;92957.22;5071828;28;20387;-73
2024/04/02 02:58:19;;;;;;;31.27;6.32;;;;;;;18.94;22.78;92994.16;5071473;28;20036;-72
2024/04/02 03:00:44;;;;;;;23.02;4.78;;;;;;;18.59;21.73;92995.63;5072054;28;20032;-73
2024/04/02 03:03:09;;;;;;;25.55;4.85;;;;;;;18.73;21.40;92982.22;5071468;28;20041;-73
2024/04/02 03:05:35;;;;;;;32.78;5.03;;;;;;;18.91;21.36;92989.53;5071559;28;20429;-73
2024/04/02 03:08:01;;;;;;;32.20;4.45;;;;;;;19.00;21.34;92971.06;5071439;28;20457;-73
2024/04/02 03:10:26;;;;;;;32.75;4.78;;;;;;;18.86;22.74;92988.00;5071466;28;20028;-73
2024/04/02 03:12:52;;;;;;;23.90;5.32;;;;;;;19.14;21.95;93008.78;5072095;28;20021;-73
2024/04/02 03:15:17;;;;;;;21.65;4.22;;;;;;;19.19;21.60;92973.34;5071174;28;20043;-73
2024/04/02 03:17:42;;;;;;;25.45;4.95;;;;;;;18.94;21.73;92967.22;5071121;28;20029;-73
2024/04/02 03:20:08;;;;;;;27.15;4.57;;;;;;;19.10;21.38;92989.16;5071042;28;20040;-73
2024/04/02 03:22:34;;;;;;;32.78;6.32;;;;;;;18.85;21.78;92989.16;5071068;28;20444;-73
2024/04/02 03:24:59;;;;;;;22.05;5.28;;;;;;;18.96;21.70;92997.25;5071646;28;20082;-73
2024/04/02 03:27:24;;;;;;;29.15;5.32;;;;;;;18.86;22.08;92988.00;5070904;28;20056;-73
2024/04/02 03:29:50;;;;;;;34.28;5.55;;;;;;;18.50;22.98;92995.25;5070841;28;20047;-73
2024/04/02 03:32:15;;;;;;;22.35;3.88;;;;;;;18.73;21.83;92974.13;5070982;28;20420;-73
2024/04/02 03:34:41;;;;;;;33.05;4.47;;;;;;;18.66;21.75;92962.56;5071194;28;20036;-72
2024/04/02 03:37:06;;;;;;;32.05;5.50;;;;;;;18.72;21.66;92978.00;5071262;28;20024;-73
2024/04/02 03:39:33;;;;;;;30.50;5.20;;;;;;;18.82;21.96;93066.09;5070908;28;20131;-73
2024/04/02 03:41:58;;;;;;;29.30;5.78;;;;;;;18.53;21.49;93007.19;5070860;28;20436;-73
2024/04/02 03:44:23;;;;;;;35.35;5.10;;;;;;;18.65;21.51;92999.50;5071055;28;20047;-73
2024/04/02 03:46:48;;;;;;;29.52;4.72;;;;;;;18.68;22.03;92992.56;5070799;28;20052;-73
2024/04/02 03:49:14;;;;;;;36.67;6.88;;;;;;;18.60;22.14;92989.09;5070813;28;20020;-72
2024/04/02 03:51:39;;;;;;;29.80;5.13;;;;;;;18.33;22.18;93044.44;5071509;28;20029;-73
2024/04/02 03:54:05;;;;;;;28.35;4.45;;;;;;;18.47;21.85;93031.00;5070607;28;20036;-73
2024/04/02 03:56:33;;;;;;;38.33;5.05;;;;;;;18.73;21.48;93017.22;5070652;28;20037;-73
2024/04/02 03:58:58;;;;;;;26.48;5.82;;;;;;;18.42;22.53;93031.38;5070535;28;20048;-73
2024/04/02 04:01:24;;;;;;;31.13;4.50;;;;;;;18.45;21.87;93011.75;5070693;28;20029;-73
2024/04/02 04:03:49;;;;;;;27.40;6.30;;;;;;;18.45;22.34;93030.59;5071299;28;20028;-73
2024/04/02 04:06:14;;;;;;;49.50;5.80;;;;;;;18.43;22.27;93060.59;5070890;28;20040;-73
2024/04/02 04:08:40;;;;;;;31.08;5.32;;;;;;;18.35;22.35;93018.66;5070775;28;20037;-73
2024/04/02 04:11:06;;;;;;;21.90;4.72;;;;;;;18.37;22.45;93032.53;5070704;28;20037;-73
2024/04/02 04:13:31;;;;;;;19.85;4.07;;;;;;;18.34;22.54;93037.88;5070685;28;20040;-73
2024/04/02 04:15:59;;;;;;;26.58;4.50;;;;;;;18.22;22.73;93057.06;5071187;28;20054;-73
2024/04/02 04:18:26;;;;;;;32.20;5.40;;;;;;;18.19;22.60;93039.75;5070425;28;20493;-73
2024/04/02 04:20:56;;;;;;;26.38;4.70;;;;;;;18.25;22.85;93067.06;5070566;28;20485;-73
2024/04/02 04:23:21;;;;;;;28.75;5.95;;;;;;;18.18;23.06;93040.16;5070359;28;20028;-73
2024/04/02 04:25:54;;;;;;;44.25;5.95;;;;;;;17.98;23.60;93072.75;5070245;28;20536;-73
2024/04/02 04:28:20;;;;;;;37.63;4.88;;;;;;;17.70;23.74;93080.59;5070333;28;20024;-72
2024/04/02 04:30:54;;;;;;;36.05;4.63;;;;;;;18.05;23.33;93066.59;5073142;28;20059;-73
2024/04/02 04:33:20;;;;;;;34.80;5.72;;;;;;;17.94;23.99;93077.31;5074285;28;20047;-73
2024/04/02 04:35:49;;;;;;;28.58;5.15;;;;;;;17.71;24.01;93066.00;5074190;28;20558;-72
2024/04/02 04:38:16;;;;;;;32.13;5.50;;;;;;;17.80;24.13;93100.63;5074425;28;20123;-73
2024/04/02 04:40:42;;;;;;;37.42;6.18;;;;;;;18.16;24.65;93101.63;5073908;28;20489;-73
2024/04/02 04:43:07;;;;;;;33.35;5.10;;;;;;;18.16;23.80;93063.97;5074913;28;20029;-73
2024/04/02 04:45:33;;;;;;;27.65;4.97;;;;;;;18.00;24.12;93110.78;5074146;28;20413;-73
2024/04/02 04:47:59;;;;;;;34.22;4.80;;;;;;;18.00;23.66;93077.72;5073715;28;20040;-73
2024/04/02 04:50:25;;;;;;;28.40;5.82;;;;;;;17.73;24.02;93101.38;5073808;28;20443;-73
2024/04/02 04:52:51;;;;;;;29.70;4.72;;;;;;;17.81;24.61;93107.56;5074041;28;20549;-73
2024/04/02 04:55:17;;;;;;;32.88;5.22;;;;;;;17.64;24.35;93098.25;5073953;28;20060;-72
2024/04/02 04:57:42;;;;;;;26.17;5.07;;;;;;;17.40;25.69;93126.50;5073470;28;20068;-74
2024/04/02 05:00:08;;;;;;;27.05;5.13;;;;;;;17.58;24.84;93083.59;5073662;28;20118;-74
2024/04/02 05:02:34;;;;;;;32.63;5.82;;;;;;;17.41;25.50;93127.25;5073805;28;20098;-74
2024/04/02 05:04:59;;;;;;;31.92;5.88;;;;;;;17.28;25.46;93140.19;5073483;28;20043;-74
2024/04/02 05:07:25;;;;;;;28.75;5.50;;;;;;;17.06;25.52;93098.91;5073572;28;20023;-73
2024/04/02 05:09:51;;;;;;;32.15;6.38;;;;;;;16.99;26.07;93122.25;5074617;28;20103;-73
2024/04/02 05:12:17;;;;;;;37.20;5.78;;;;;;;17.04;25.80;93125.38;5073461;28;20033;-73
2024/04/02 05:14:43;;;;;;;30.27;4.40;;;;;;;17.25;25.76;93122.16;5073671;28;20131;-73
2024/04/02 05:17:08;;;;;;;25.42;5.68;;;;;;;17.13;25.65;93128.56;5073710;28;20292;-73
2024/04/02 05:19:34;;;;;;;22.73;5.60;;;;;;;16.91;26.40;93121.44;5073219;28;20474;-73
2024/04/02 05:21:59;;;;;;;33.65;5.03;;;;;;;17.12;25.93;93096.66;5073938;28;20032;-73
2024/04/02 05:24:25;;;;;;;30.35;5.10;;;;;;;17.02;25.53;93116.13;5073394;28;20119;-73
2024/04/02 05:26:50;;;;;;;35.60;6.45;;;;;;;17.06;26.18;93103.53;5073349;28;20032;-73
2024/04/02 05:29:16;;;;;;;23.77;5.45;;;;;;;16.96;26.71;93094.22;5073335;28;20040;-73
2024/04/02 05:31:42;;;;;;;22.30;5.00;;;;;;;17.14;27.12;93145.44;5072968;28;20049;-73
2024/04/02 05:34:08;;;;;;;33.75;4.93;;;;;;;17.02;26.14;93106.16;5073752;28;20032;-73
2024/04/02 05:36:33;;;;;;;25.33;5.38;;;;;;;17.00;26.37;93113.84;5073071;28;20086;-73
2024/04/02 05:38:59;;;;;;;28.80;6.50;;;;;;;16.74;26.61;93087.09;5072936;28;20516;-73
2024/04/02 05:41:24;;;;;;;28.40;5.60;;;;;;;17.05;26.39;93132.31;5072816;28;20094;-73
2024/04/02 05:43:49;;;;;;;21.45;4.15;;;;;;;17.26;26.68;93109.47;5072551;28;20048;-73
2024/04/02 05:46:15;;;;;;;25.63;6.07;;;;;;;17.26;26.17;93131.72;5072951;28;20382;-72
2024/04/02 05:48:41;;;;;;;31.02;5.38;;;;;;;17.07;26.79;93121.94;5073054;28;20021;-73
2024/04/02 05:51:06;;;;;;;22.63;5.32;;;;;;;16.97;26.70;93127.22;5072711;28;20045;-73
2024/04/02 05:53:31;;;;;;;56.10;9.15;;;;;;;17.14;26.22;93124.75;5072998;28;20047;-73
2024/04/02 05:55:57;;;;;;;23.17;4.20;;;;;;;17.17;27.35;93144.69;5072924;28;20513;-73
2024/04/02 05:58:22;;;;;;;32.65;5.43;;;;;;;17.32;26.51;93151.75;5072724;28;20040;-73
2024/04/02 06:00:48;;;;;;;34.75;5.47;;;;;;;17.24;26.82;93165.50;5073060;28;20126;-73
2024/04/02 06:03:13;;;;;;;34.08;4.93;;;;;;;17.35;26.71;93169.06;5072735;28;20112;-73
2024/04/02 06:05:38;;;;;;;27.00;4.53;;;;;;;17.14;26.54;93156.19;5072447;28;20037;-73
2024/04/02 06:08:04;;;;;;;33.35;5.90;;;;;;;17.14;26.32;93161.56;5072474;28;20059;-73
2024/04/02 06:10:30;;;;;;;34.85;5.90;;;;;;;17.42;26.66;93171.81;5072438;28;20412;-73
2024/04/02 06:12:55;;;;;;;27.67;5.93;;;;;;;17.41;27.11;93170.25;5073424;28;20059;-70
2024/04/02 06:15:21;;;;;;;30.80;6.72;;;;;;;17.59;27.41;93138.94;5072109;28;20500;-75
2024/04/02 06:17:47;;;;;;;23.88;4.43;;;;;;;17.62;26.65;93165.06;5071036;28;20028;-75
2024/04/02 06:20:12;;;;;;;35.92;5.20;;;;;;;17.64;27.01;93162.78;5070902;28;20048;-75
2024/04/02 06:22:37;;;;;;;36.70;6.63;;;;;;;17.76;27.27;93173.22;5072048;28;20259;-75
2024/04/02 06:25:03;;;;;;;26.58;6.47;;;;;;;17.54;27.49;93161.56;5072569;28;20029;-75
2024/04/02 06:27:28;;;;;;;30.75;5.55;;;;;;;17.63;27.96;93171.97;5071188;28;20029;-75
2024/04/02 06:29:54;;;;;;;25.38;5.78;;;;;;;17.53;27.82;93191.50;5072044;28;20028;-75
2024/04/02 06:32:21;;;;;;;23.38;6.25;;;;;;;17.35;28.16;93209.38;5071184;28;20476;-74
2024/04/02 06:34:46;;;;;;;22.90;5.05;;;;;;;17.39;28.32;93197.53;5071915;28;20401;-75
2024/04/02 06:37:11;;;;;;;47.03;7.25;;;;;;;17.35;28.05;93209.38;5072058;28;20027;-73
2024/04/02 06:39:37;;;;;;;33.55;4.93;;;;;;;17.12;28.43;93218.31;5072036;28;20051;-74
2024/04/02 06:42:02;;;;;;;35.03;6.50;;;;;;;16.90;28.86;93221.94;5071687;28;20047;-74
2024/04/02 06:44:28;;;;;;;23.10;4.32;;;;;;;16.93;28.85;93237.31;5071588;28;20400;-74
2024/04/02 06:46:53;;;;;;;23.10;4.80;;;;;;;17.01;29.10;93222.06;5071353;28;20032;-74
2024/04/02 06:49:19;;;;;;;23.48;4.72;;;;;;;17.03;29.62;93231.28;5070814;28;20035;-74
2024/04/02 06:51:44;;;;;;;27.60;4.90;;;;;;;17.04;29.51;93227.47;5071409;28;20123;-74
2024/04/02 06:54:10;;;;;;;22.50;5.32;;;;;;;16.99;29.63;93241.22;5070432;28;20044;-74
2024/04/02 06:56:35;;;;;;;28.67;5.70;;;;;;;17.15;29.67;93241.81;5071210;28;20136;-73
2024/04/02 06:59:01;;;;;;;30.35;5.15;;;;;;;17.23;30.04;93256.09;5071100;28;20413;-74
2024/04/02 07:01:26;;;;;;;24.63;4.47;;;;;;;17.24;29.94;93267.63;5071683;28;20032;-74
2024/04/02 07:03:52;;;;;;;32.35;6.03;;;;;;;17.25;31.38;93263.78;5069613;28;20012;-74
2024/04/02 07:06:17;;;;;;;25.00;5.80;;;;;;;17.32;31.70;93263.84;5070664;28;20041;-74
2024/04/02 07:08:46;;;;;;;27.17;6.35;;;;;;;17.35;32.19;93265.81;5070953;28;20032;-74
2024/04/02 07:11:12;;;;;;;27.02;7.22;;;;;;;17.55;32.03;93269.88;5070154;28;20044;-74
2024/04/02 07:13:37;;;;;;;23.95;5.25;;;;;;;17.62;33.25;93253.78;5071117;28;20036;-74
2024/04/02 07:16:03;;;;;;;30.40;7.78;;;;;;;17.68;33.37;93281.91;5071293;28;20477;-74
2024/04/02 07:18:35;;;;;;;32.25;6.53;;;;;;;17.58;33.89;93283.34;5070897;28;20020;-74
2024/04/02 07:21:02;;;;;;;27.02;5.53;;;;;;;17.85;33.37;93283.19;5070263;28;20093;-74
2024/04/02 07:23:27;;;;;;;33.17;6.13;;;;;;;17.59;32.56;93284.13;5070766;28;20517;-74
2024/04/02 07:25:53;;;;;;;24.30;6.45;;;;;;;17.56;33.10;93274.09;5070229;28;20055;-74
2024/04/02 07:28:19;;;;;;;37.72;7.40;;;;;;;17.81;32.33;93293.91;5070753;28;20074;-73
2024/04/02 07:30:45;;;;;;;25.95;6.63;;;;;;;18.03;32.81;93286.84;5071653;28;20028;-73
2024/04/02 07:33:10;;;;;;;25.58;6.40;;;;;;;17.76;33.17;93280.03;5070613;28;20096;-74
2024/04/02 07:35:37;;;;;;;30.27;6.60;;;;;;;17.98;33.57;93290.66;5070987;28;20032;-74
2024/04/02 07:38:03;;;;;;;33.45;7.78;;;;;;;17.64;34.70;93296.44;5070847;28;20036;-74
2024/04/02 07:40:28;;;;;;;27.42;7.07;;;;;;;17.39;35.09;93275.47;5070690;28;20050;-74
2024/04/02 07:42:54;;;;;;;34.55;7.80;;;;;;;17.62;34.96;93296.81;5071628;28;20103;-74
2024/04/02 07:45:19;;;;;;;40.42;6.95;;;;;;;17.76;35.39;93288.88;5070761;28;20043;-74
2024/04/02 07:47:47;;;;;;;30.90;8.48;;;;;;;17.55;36.08;93292.13;5070680;28;20056;-74
2024/04/02 07:50:12;;;;;;;25.10;7.80;;;;;;;17.43;35.97;93287.03;5071029;28;20037;-74
2024/04/02 07:52:38;;;;;;;42.03;8.77;;;;;;;17.17;36.15;93279.81;5070894;28;20043;-74
2024/04/02 07:55:03;;;;;;;26.35;9.93;;;;;;;17.09;36.51;93301.56;5071275;28;20024;-74
2024/04/02 07:57:29;;;;;;;37.17;9.63;;;;;;;16.85;35.68;93297.44;5070217;28;20382;-74
2024/04/02 07:59:54;;;;;;;31.23;9.27;;;;;;;16.81;35.89;93277.06;5070710;28;20040;-74
2024/04/02 08:02:20;;;;;;;33.30;8.90;;;;;;;16.91;35.76;93301.38;5070695;28;20331;-74
2024/04/02 08:04:49;;;;;;;36.80;9.23;;;;;;;16.85;36.34;93286.72;5073467;28;20086;-74
2024/04/02 08:07:17;;;;;;;35.65;9.35;;;;;;;16.94;36.06;93284.50;5074743;28;20035;-73
2024/04/02 08:09:42;;;;;;;33.88;10.70;;;;;;;16.87;35.76;93276.34;5074715;28;20063;-74
2024/04/02 08:12:08;;;;;;;33.60;9.70;;;;;;;16.90;36.39;93274.88;5073523;28;20037;-74
2024/04/02 08:14:33;;;;;;;37.97;10.63;;;;;;;16.92;36.49;93273.34;5073193;28;20033;-74
2024/04/02 08:16:59;;;;;;;36.00;8.32;;;;;;;16.91;36.29;93261.09;5074050;28;20041;-74
2024/04/02 08:19:24;;;;;;;36.63;6.72;;;;;;;16.89;36.58;93278.69;5074257;28;20025;-74
2024/04/02 08:21:50;;;;;;;33.47;7.68;;;;;;;16.95;36.21;93283.38;5074305;28;20086;-74
2024/04/02 08:24:15;;;;;;;31.45;7.03;;;;;;;17.18;36.13;93269.84;5074216;28;20029;-74
2024/04/02 08:26:41;;;;;;;21.65;4.85;;;;;;;17.20;35.58;93269.50;5074078;28;20041;-74
2024/04/02 08:29:06;;;;;;;22.10;5.10;;;;;;;17.25;35.61;93263.78;5074133;28;20422;-74
2024/04/02 08:31:32;;;;;;;24.60;6.18;;;;;;;17.66;34.46;93248.44;5074305;28;20048;-74
2024/04/02 08:33:57;;;;;;;24.77;5.57;;;;;;;17.39;34.16;93269.31;5074615;28;20028;-74
2024/04/02 08:36:22;;;;;;;18.50;5.20;;;;;;;17.36;35.13;93270.03;5074199;28;20425;-74
2024/04/02 08:38:48;;;;;;;22.77;4.93;;;;;;;17.50;33.86;93254.81;5073898;28;20033;-74
2024/04/02 08:41:15;;;;;;;25.10;5.32;;;;;;;17.68;34.22;93244.25;5073383;28;20036;-74
2024/04/02 08:43:43;;;;;;;30.25;7.65;;;;;;;17.69;33.89;93251.19;5074139;28;20040;-74
2024/04/02 08:46:10;;;;;;;18.42;4.55;;;;;;;17.72;32.58;93255.81;5074734;28;20111;-74
2024/04/02 08:48:35;;;;;;;22.52;4.90;;;;;;;17.60;32.17;93245.31;5074290;28;20501;-74
2024/04/02 08:51:04;;;;;;;23.73;4.90;;;;;;;17.44;31.63;93255.53;5073698;28;20048;-74
2024/04/02 08:53:35;;;;;;;20.23;4.97;;;;;;;17.37;31.08;93272.34;5073335;28;20041;-74
2024/04/02 08:56:00;;;;;;;26.13;3.85;;;;;;;17.47;31.34;93255.56;5073276;28;20047;-74
2024/04/02 08:58:27;;;;;;;21.65;4.45;;;;;;;17.65;31.53;93279.94;5072743;28;20032;-74
2024/04/02 09:00:53;;;;;;;25.73;4.22;;;;;;;17.68;30.10;93276.50;5073827;28;20477;-74
2024/04/02 09:03:19;;;;;;;23.65;4.55;;;;;;;17.59;31.39;93273.34;5072896;28;20123;-74
2024/04/02 09:05:45;;;;;;;20.15;4.07;;;;;;;17.64;29.86;93264.97;5073585;28;20497;-74
2024/04/02 09:08:13;;;;;;;17.77;3.63;;;;;;;17.59;29.51;93262.59;5073543;28;20130;-74
2024/04/02 09:10:39;;;;;;;23.65;4.70;;;;;;;17.65;28.91;93273.81;5073345;28;20520;-74
2024/04/02 09:13:04;;;;;;;18.67;3.33;;;;;;;17.65;27.44;93282.63;5073714;28;20028;-74
2024/04/02 09:15:30;;;;;;;15.98;2.63;;;;;;;17.60;27.10;93264.91;5072086;28;20040;-74
2024/04/02 09:17:55;;;;;;;17.58;3.65;;;;;;;17.49;29.40;93274.03;5072705;28;20039;-74
2024/04/02 09:20:21;;;;;;;18.73;3.85;;;;;;;17.48;27.88;93277.84;5073167;28;20043;-75
2024/04/02 09:22:50;;;;;;;13.55;3.75;;;;;;;17.58;26.41;93263.75;5072271;28;20119;-75
2024/04/02 09:25:16;;;;;;;12.82;3.58;;;;;;;17.62;24.80;93269.91;5073559;28;20067;-72
2024/04/02 09:27:42;;;;;;;14.93;4.57;;;;;;;17.74;26.22;93252.75;5073867;28;20054;-75
2024/04/02 09:30:08;;;;;;;29.60;4.75;;;;;;;17.74;27.06;93258.91;5073224;28;20121;-75
2024/04/02 09:32:37;;;;;;;16.33;3.53;;;;;;;17.76;27.79;93261.97;5073137;28;20405;-75
2024/04/02 09:35:11;;;;;;;12.73;3.55;;;;;;;17.64;27.11;93267.66;5073260;28;20125;-74
2024/04/02 09:37:40;;;;;;;19.83;4.60;;;;;;;17.78;26.54;93257.00;5073325;28;20028;-75
2024/04/02 09:40:06;;;;;;;12.70;3.85;;;;;;;17.80;27.35;93273.53;5073681;28;20499;-74
2024/04/02 09:42:33;;;;;;;16.52;2.97;;;;;;;17.76;26.81;93271.97;5072792;28;20028;-75
2024/04/02 09:45:00;;;;;;;14.85;4.35;;;;;;;17.72;27.17;93261.19;5072550;28;20043;-75
2024/04/02 09:47:29;;;;;;;20.27;4.20;;;;;;;17.71;27.40;93267.69;5072704;28;20037;-75
2024/04/02 09:49:56;;;;;;;23.95;3.88;;;;;;;17.90;28.05;93266.69;5072893;28;20413;-75
2024/04/02 09:52:23;;;;;;;19.52;3.92;;;;;;;18.02;27.77;93261.06;5073160;28;20024;-74
2024/04/02 09:54:50;;;;;;;9.85;3.55;;;;;;;18.09;27.19;93260.38;5073194;28;20425;-75
2024/04/02 09:57:16;;;;;;;12.80;3.25;;;;;;;18.06;28.04;93274.56;5072411;28;20045;-75
2024/04/02 09:59:42;;;;;;;11.05;3.42;;;;;;;18.11;27.72;93282.28;5072583;28;20041;-75
2024/04/02 10:02:15;;;;;;;13.07;3.38;;;;;;;18.20;25.95;93280.81;5072450;28;20040;-75
2024/04/02 10:04:41;;;;;;;10.15;3.42;;;;;;;18.35;24.85;93281.69;5073008;28;20037;-74
2024/04/02 10:07:06;;;;;;;13.43;2.63;;;;;;;18.48;23.73;93268.72;5071693;28;20028;-75
2024/04/02 10:09:45;;;;;;;10.25;3.03;;;;;;;18.32;23.25;93282.44;5072639;28;20056;-75
2024/04/02 10:12:10;;;;;;;15.02;4.35;;;;;;;18.24;23.23;93276.22;5072524;28;20040;-75
2024/04/02 10:14:36;;;;;;;17.30;3.55;;;;;;;18.21;23.09;93268.13;5072300;28;20397;-74
2024/04/02 10:17:02;;;;;;;12.60;3.42;;;;;;;18.18;23.41;93268.88;5072331;28;20071;-74
2024/04/02 10:19:32;;;;;;;7.70;2.65;;;;;;;18.06;22.96;93269.94;5072019;28;20308;-74
2024/04/02 10:21:58;;;;;;;9.32;1.73;;;;;;;17.99;22.94;93281.41;5072796;28;20493;-75
2024/04/02 10:24:26;;;;;;;16.20;2.08;;;;;;;17.82;23.67;93279.31;5071948;28;20158;-75
2024/04/02 10:26:56;;;;;;;6.38;1.67;;;;;;;17.88;23.42;93275.16;5071206;28;20040;-74
2024/04/02 10:29:28;;;;;;;9.30;1.67;;;;;;;17.40;23.81;93277.03;5071364;28;20410;-75
2024/04/02 10:31:57;;;;;;;7.32;1.60;;;;;;;17.80;24.33;93276.22;5071786;28;20119;-75
2024/04/02 10:34:24;;;;;;;5.75;1.60;;;;;;;17.88;23.39;93263.63;5071244;28;20134;-74
2024/04/02 10:36:50;;;;;;;9.85;1.85;;;;;;;17.81;23.36;93271.63;5070102;28;20044;-75
2024/04/02 10:39:16;;;;;;;7.82;2.15;;;;;;;17.59;23.33;93273.34;5070532;28;20067;-75
2024/04/02 10:41:44;;;;;;;7.28;2.17;;;;;;;17.35;23.18;93263.91;5071334;28;20102;-75
2024/04/02 10:44:10;;;;;;;7.43;1.88;;;;;;;17.54;23.46;93261.03;5071202;28;20036;-75
2024/04/02 10:46:37;;;;;;;8.85;2.15;;;;;;;17.75;23.60;93254.28;5071139;28;20452;-75
2024/04/02 10:49:03;;;;;;;6.75;1.55;;;;;;;17.78;23.32;93265.09;5071813;28;20059;-75
2024/04/02 10:51:30;;;;;;;8.77;2.40;;;;;;;17.80;22.39;93245.88;5071304;28;20564;-75
2024/04/02 10:53:56;;;;;;;4.25;1.63;;;;;;;17.75;22.58;93254.28;5071198;28;20032;-74
2024/04/02 10:56:24;;;;;;;9.68;2.17;;;;;;;17.74;22.93;93260.81;5071190;28;20134;-75
2024/04/02 10:58:51;;;;;;;11.52;1.58;;;;;;;17.91;21.71;93250.19;5071046;28;20128;-75
2024/04/02 11:01:17;;;;;;;4.47;1.40;;;;;;;18.01;21.98;93252.22;5070818;28;20039;-75
2024/04/02 11:03:43;;;;;;;4.38;1.30;;;;;;;18.06;24.04;93244.97;5071546;28;20025;-75
2024/04/02 11:06:10;;;;;;;7.05;1.95;;;;;;;18.14;21.73;93254.66;5070976;28;20059;-74
2024/04/02 11:08:38;;;;;;;6.65;1.55;;;;;;;18.06;20.76;93247.66;5071046;28;20029;-75
2024/04/02 11:11:04;;;;;;;7.10;1.73;;;;;;;17.78;20.47;93243.56;5070969;28;20138;-75
2024/04/02 11:13:30;;;;;;;1.95;1.02;;;;;;;17.68;20.76;93248.84;5070464;28;20037;-74
2024/04/02 11:15:57;;;;;;;3.80;0.85;;;;;;;18.08;20.31;93239.97;5071545;28;20034;-75
2024/04/02 11:18:23;;;;;;;14.05;2.00;;;;;;;18.16;21.01;93233.50;5071296;28;20036;-75
2024/04/02 11:20:54;;;;;;;17.20;3.75;;;;;;;18.15;20.55;93213.88;5071534;28;20059;-75